sensor_id;sensor_type;location;lat;lon;timestamp;P1;durP1;ratioP1;P2;durP2;ratioP2
25129;SDS011;13308;50.860;13.664;2023-06-22T04:58:18;9.52;;;8.30;;
25129;SDS011;13308;50.860;13.664;2023-06-22T05:00:44;10.35;;;8.82;;
25129;SDS011;13308;50.860;13.664;2023-06-22T05:03:10;9.20;;;8.27;;
25129;SDS011;13308;50.860;13.664;2023-06-22T05:05:36;8.55;;;7.72;;
25129;SDS011;13308;50.860;13.664;2023-06-22T05:08:01;9.15;;;8.25;;
25129;SDS011;13308;50.860;13.664;2023-06-22T05:10:26;9.35;;;8.38;;
25129;SDS011;13308;50.860;13.664;2023-06-22T05:12:52;8.80;;;7.88;;
25129;SDS011;13308;50.860;13.664;2023-06-22T05:15:17;11.52;;;8.07;;
25129;SDS011;13308;50.860;13.664;2023-06-22T05:17:44;9.35;;;8.38;;
25129;SDS011;13308;50.860;13.664;2023-06-22T05:20:10;9.27;;;8.25;;
25129;SDS011;13308;50.860;13.664;2023-06-22T05:22:36;9.93;;;8.70;;
25129;SDS011;13308;50.860;13.664;2023-06-22T05:25:02;11.10;;;8.73;;
25129;SDS011;13308;50.860;13.664;2023-06-22T05:27:28;9.90;;;7.95;;
25129;SDS011;13308;50.860;13.664;2023-06-22T05:29:53;10.50;;;8.70;;
25129;SDS011;13308;50.860;13.664;2023-06-22T05:32:18;9.80;;;8.90;;
25129;SDS011;13308;50.860;13.664;2023-06-22T05:34:44;9.85;;;8.32;;
25129;SDS011;13308;50.860;13.664;2023-06-22T05:37:09;10.50;;;9.07;;
25129;SDS011;13308;50.860;13.664;2023-06-22T05:39:34;9.40;;;8.50;;
25129;SDS011;13308;50.860;13.664;2023-06-22T05:42:03;9.55;;;8.43;;
25129;SDS011;13308;50.860;13.664;2023-06-22T05:44:30;10.35;;;8.73;;
25129;SDS011;13308;50.860;13.664;2023-06-22T05:46:55;10.43;;;8.80;;
25129;SDS011;13308;50.860;13.664;2023-06-22T05:49:20;8.18;;;7.45;;
25129;SDS011;13308;50.860;13.664;2023-06-22T05:51:47;8.73;;;7.82;;
25129;SDS011;13308;50.860;13.664;2023-06-22T05:54:13;8.80;;;7.90;;
25129;SDS011;13308;50.860;13.664;2023-06-22T05:56:40;8.45;;;7.75;;
25129;SDS011;13308;50.860;13.664;2023-06-22T05:59:06;8.43;;;7.63;;
25129;SDS011;13308;50.860;13.664;2023-06-22T06:01:31;8.80;;;8.00;;
25129;SDS011;13308;50.860;13.664;2023-06-22T06:04:00;8.63;;;7.82;;
25129;SDS011;13308;50.860;13.664;2023-06-22T06:06:26;8.52;;;7.72;;
25129;SDS011;13308;50.860;13.664;2023-06-22T06:08:53;9.52;;;8.60;;
25129;SDS011;13308;50.860;13.664;2023-06-22T06:11:19;10.60;;;9.18;;
25129;SDS011;13308;50.860;13.664;2023-06-22T06:13:44;10.18;;;8.68;;
25129;SDS011;13308;50.860;13.664;2023-06-22T06:16:10;10.27;;;8.52;;
25129;SDS011;13308;50.860;13.664;2023-06-22T06:18:35;8.45;;;7.75;;
25129;SDS011;13308;50.860;13.664;2023-06-22T06:21:02;9.23;;;8.20;;
25129;SDS011;13308;50.860;13.664;2023-06-22T06:23:28;8.65;;;7.72;;
25129;SDS011;13308;50.860;13.664;2023-06-22T06:25:53;8.40;;;7.60;;
25129;SDS011;13308;50.860;13.664;2023-06-22T06:28:18;14.13;;;8.63;;
25129;SDS011;13308;50.860;13.664;2023-06-22T06:30:44;8.95;;;7.68;;
25129;SDS011;13308;50.860;13.664;2023-06-22T06:33:09;8.20;;;7.40;;
25129;SDS011;13308;50.860;13.664;2023-06-22T06:35:34;8.02;;;7.25;;
25129;SDS011;13308;50.860;13.664;2023-06-22T06:38:00;7.00;;;6.40;;
25129;SDS011;13308;50.860;13.664;2023-06-22T06:40:26;8.55;;;7.75;;
25129;SDS011;13308;50.860;13.664;2023-06-22T06:42:51;8.43;;;7.63;;
25129;SDS011;13308;50.860;13.664;2023-06-22T06:45:20;8.73;;;7.93;;
25129;SDS011;13308;50.860;13.664;2023-06-22T06:47:47;8.75;;;7.95;;
25129;SDS011;13308;50.860;13.664;2023-06-22T06:50:14;7.43;;;6.82;;
25129;SDS011;13308;50.860;13.664;2023-06-22T06:52:39;8.15;;;7.40;;
25129;SDS011;13308;50.860;13.664;2023-06-22T06:55:05;8.27;;;7.57;;
25129;SDS011;13308;50.860;13.664;2023-06-22T06:57:36;7.93;;;7.15;;
25129;SDS011;13308;50.860;13.664;2023-06-22T07:00:07;8.05;;;7.35;;
25129;SDS011;13308;50.860;13.664;2023-06-22T07:02:37;8.18;;;7.43;;
25129;SDS011;13308;50.860;13.664;2023-06-22T07:05:05;8.07;;;7.45;;
25129;SDS011;13308;50.860;13.664;2023-06-22T07:07:30;8.45;;;7.65;;
25129;SDS011;13308;50.860;13.664;2023-06-22T07:09:55;7.57;;;6.97;;
25129;SDS011;13308;50.860;13.664;2023-06-22T07:12:21;8.38;;;7.68;;
25129;SDS011;13308;50.860;13.664;2023-06-22T07:14:46;9.07;;;8.27;;
25129;SDS011;13308;50.860;13.664;2023-06-22T07:17:11;8.40;;;7.70;;
25129;SDS011;13308;50.860;13.664;2023-06-22T07:19:37;9.30;;;7.55;;
25129;SDS011;13308;50.860;13.664;2023-06-22T07:22:02;8.60;;;7.80;;
25129;SDS011;13308;50.860;13.664;2023-06-22T07:24:28;7.90;;;7.20;;
25129;SDS011;13308;50.860;13.664;2023-06-22T07:26:53;7.60;;;7.00;;
25129;SDS011;13308;50.860;13.664;2023-06-22T07:29:19;7.97;;;7.18;;
25129;SDS011;13308;50.860;13.664;2023-06-22T07:31:46;8.48;;;7.78;;
25129;SDS011;13308;50.860;13.664;2023-06-22T07:34:12;8.00;;;7.28;;
25129;SDS011;13308;50.860;13.664;2023-06-22T07:36:38;8.13;;;7.45;;
25129;SDS011;13308;50.860;13.664;2023-06-22T07:39:03;7.95;;;7.20;;
25129;SDS011;13308;50.860;13.664;2023-06-22T07:41:29;7.28;;;6.57;;
25129;SDS011;13308;50.860;13.664;2023-06-22T07:43:54;7.75;;;6.90;;
25129;SDS011;13308;50.860;13.664;2023-06-22T07:46:20;8.48;;;7.78;;
25129;SDS011;13308;50.860;13.664;2023-06-22T07:48:45;8.27;;;7.47;;
25129;SDS011;13308;50.860;13.664;2023-06-22T07:51:10;8.73;;;7.93;;
25129;SDS011;13308;50.860;13.664;2023-06-22T07:53:39;7.57;;;6.97;;
25129;SDS011;13308;50.860;13.664;2023-06-22T07:56:06;7.97;;;7.38;;
25129;SDS011;13308;50.860;13.664;2023-06-22T07:58:32;8.15;;;7.55;;
25129;SDS011;13308;50.860;13.664;2023-06-22T08:00:58;8.02;;;7.43;;
25129;SDS011;13308;50.860;13.664;2023-06-22T08:03:24;8.05;;;7.45;;
25129;SDS011;13308;50.860;13.664;2023-06-22T08:05:49;7.45;;;6.85;;
25129;SDS011;13308;50.860;13.664;2023-06-22T08:08:14;8.45;;;7.00;;
25129;SDS011;13308;50.860;13.664;2023-06-22T08:10:40;7.88;;;7.18;;
25129;SDS011;13308;50.860;13.664;2023-06-22T08:13:06;7.97;;;7.22;;
25129;SDS011;13308;50.860;13.664;2023-06-22T08:15:31;9.98;;;8.00;;
25129;SDS011;13308;50.860;13.664;2023-06-22T08:17:57;9.20;;;8.00;;
25129;SDS011;13308;50.860;13.664;2023-06-22T08:20:23;7.43;;;6.93;;
25129;SDS011;13308;50.860;13.664;2023-06-22T08:22:48;7.85;;;7.25;;
25129;SDS011;13308;50.860;13.664;2023-06-22T08:25:13;8.90;;;8.20;;
25129;SDS011;13308;50.860;13.664;2023-06-22T08:27:39;8.70;;;7.93;;
25129;SDS011;13308;50.860;13.664;2023-06-22T08:30:05;9.13;;;8.32;;
25129;SDS011;13308;50.860;13.664;2023-06-22T08:32:31;9.27;;;8.38;;
25129;SDS011;13308;50.860;13.664;2023-06-22T08:34:57;12.10;;;10.80;;
25129;SDS011;13308;50.860;13.664;2023-06-22T08:37:23;9.00;;;8.23;;
25129;SDS011;13308;50.860;13.664;2023-06-22T08:39:55;9.30;;;8.50;;
25129;SDS011;13308;50.860;13.664;2023-06-22T08:42:20;8.68;;;7.97;;
25129;SDS011;13308;50.860;13.664;2023-06-22T08:44:46;8.68;;;8.02;;
25129;SDS011;13308;50.860;13.664;2023-06-22T08:47:11;8.50;;;7.88;;
25129;SDS011;13308;50.860;13.664;2023-06-22T08:49:36;8.57;;;7.78;;
25129;SDS011;13308;50.860;13.664;2023-06-22T08:52:02;8.25;;;7.55;;
25129;SDS011;13308;50.860;13.664;2023-06-22T08:54:27;8.75;;;8.05;;
25129;SDS011;13308;50.860;13.664;2023-06-22T08:56:52;8.98;;;8.00;;
25129;SDS011;13308;50.860;13.664;2023-06-22T08:59:18;11.63;;;8.23;;
25129;SDS011;13308;50.860;13.664;2023-06-22T09:01:43;8.88;;;8.07;;
25129;SDS011;13308;50.860;13.664;2023-06-22T09:04:10;8.77;;;7.97;;
25129;SDS011;13308;50.860;13.664;2023-06-22T09:06:36;9.15;;;8.45;;
25129;SDS011;13308;50.860;13.664;2023-06-22T09:09:06;9.88;;;8.88;;
25129;SDS011;13308;50.860;13.664;2023-06-22T09:11:31;8.93;;;8.23;;
25129;SDS011;13308;50.860;13.664;2023-06-22T09:13:57;9.27;;;8.52;;
25129;SDS011;13308;50.860;13.664;2023-06-22T09:16:22;9.10;;;8.40;;
25129;SDS011;13308;50.860;13.664;2023-06-22T09:18:47;8.65;;;7.95;;
25129;SDS011;13308;50.860;13.664;2023-06-22T09:21:13;8.93;;;8.23;;
25129;SDS011;13308;50.860;13.664;2023-06-22T09:23:38;12.80;;;8.45;;
25129;SDS011;13308;50.860;13.664;2023-06-22T09:26:03;9.48;;;8.57;;
25129;SDS011;13308;50.860;13.664;2023-06-22T09:28:29;9.45;;;8.55;;
25129;SDS011;13308;50.860;13.664;2023-06-22T09:30:54;9.63;;;8.82;;
25129;SDS011;13308;50.860;13.664;2023-06-22T09:33:23;9.85;;;9.05;;
25129;SDS011;13308;50.860;13.664;2023-06-22T09:35:48;10.85;;;9.65;;
25129;SDS011;13308;50.860;13.664;2023-06-22T09:38:15;9.70;;;8.85;;
25129;SDS011;13308;50.860;13.664;2023-06-22T09:40:41;9.18;;;8.48;;
25129;SDS011;13308;50.860;13.664;2023-06-22T09:43:06;10.55;;;9.65;;
25129;SDS011;13308;50.860;13.664;2023-06-22T09:45:31;9.85;;;9.05;;
25129;SDS011;13308;50.860;13.664;2023-06-22T09:47:57;11.18;;;10.23;;
25129;SDS011;13308;50.860;13.664;2023-06-22T09:50:22;10.30;;;9.40;;
25129;SDS011;13308;50.860;13.664;2023-06-22T09:52:47;10.52;;;9.63;;
25129;SDS011;13308;50.860;13.664;2023-06-22T09:55:15;10.27;;;9.43;;
25129;SDS011;13308;50.860;13.664;2023-06-22T09:57:41;9.40;;;8.63;;
25129;SDS011;13308;50.860;13.664;2023-06-22T10:00:06;10.50;;;9.50;;
25129;SDS011;13308;50.860;13.664;2023-06-22T10:02:34;10.90;;;9.13;;
25129;SDS011;13308;50.860;13.664;2023-06-22T10:04:59;10.23;;;9.43;;
25129;SDS011;13308;50.860;13.664;2023-06-22T10:07:25;11.25;;;9.98;;
25129;SDS011;13308;50.860;13.664;2023-06-22T10:09:50;11.00;;;9.95;;
25129;SDS011;13308;50.860;13.664;2023-06-22T10:12:15;10.32;;;9.10;;
25129;SDS011;13308;50.860;13.664;2023-06-22T10:14:40;11.32;;;10.20;;
25129;SDS011;13308;50.860;13.664;2023-06-22T10:17:06;9.40;;;8.57;;
25129;SDS011;13308;50.860;13.664;2023-06-22T10:19:32;10.10;;;9.30;;
25129;SDS011;13308;50.860;13.664;2023-06-22T10:21:57;9.45;;;8.73;;
25129;SDS011;13308;50.860;13.664;2023-06-22T10:24:23;10.27;;;9.45;;
25129;SDS011;13308;50.860;13.664;2023-06-22T10:26:48;10.50;;;9.68;;
25129;SDS011;13308;50.860;13.664;2023-06-22T10:29:13;10.70;;;9.60;;
25129;SDS011;13308;50.860;13.664;2023-06-22T10:31:39;10.32;;;9.27;;
25129;SDS011;13308;50.860;13.664;2023-06-22T10:34:04;10.38;;;9.57;;
25129;SDS011;13308;50.860;13.664;2023-06-22T10:36:29;11.00;;;10.00;;
25129;SDS011;13308;50.860;13.664;2023-06-22T10:38:55;9.85;;;9.05;;
25129;SDS011;13308;50.860;13.664;2023-06-22T10:41:20;12.30;;;9.23;;
25129;SDS011;13308;50.860;13.664;2023-06-22T10:43:46;10.43;;;9.60;;
25129;SDS011;13308;50.860;13.664;2023-06-22T10:46:11;9.98;;;9.07;;
25129;SDS011;13308;50.860;13.664;2023-06-22T10:48:37;9.45;;;8.60;;
25129;SDS011;13308;50.860;13.664;2023-06-22T10:51:02;9.07;;;8.25;;
25129;SDS011;13308;50.860;13.664;2023-06-22T10:53:27;9.90;;;8.38;;
25129;SDS011;13308;50.860;13.664;2023-06-22T10:55:53;9.48;;;8.57;;
25129;SDS011;13308;50.860;13.664;2023-06-22T10:58:19;8.90;;;8.20;;
25129;SDS011;13308;50.860;13.664;2023-06-22T11:00:45;9.32;;;8.45;;
25129;SDS011;13308;50.860;13.664;2023-06-22T11:03:10;9.30;;;8.40;;
25129;SDS011;13308;50.860;13.664;2023-06-22T11:05:35;11.07;;;8.27;;
25129;SDS011;13308;50.860;13.664;2023-06-22T11:08:04;9.48;;;8.68;;
25129;SDS011;13308;50.860;13.664;2023-06-22T11:10:34;9.40;;;8.57;;
25129;SDS011;13308;50.860;13.664;2023-06-22T11:12:59;9.13;;;8.32;;
25129;SDS011;13308;50.860;13.664;2023-06-22T11:15:25;10.10;;;9.20;;
25129;SDS011;13308;50.860;13.664;2023-06-22T11:17:50;9.02;;;8.32;;
25129;SDS011;13308;50.860;13.664;2023-06-22T11:20:15;8.30;;;7.68;;
25129;SDS011;13308;50.860;13.664;2023-06-22T11:22:41;9.10;;;8.40;;
25129;SDS011;13308;50.860;13.664;2023-06-22T11:25:06;9.73;;;8.75;;
25129;SDS011;13308;50.860;13.664;2023-06-22T11:27:32;9.20;;;8.43;;
25129;SDS011;13308;50.860;13.664;2023-06-22T11:29:58;10.35;;;9.02;;
25129;SDS011;13308;50.860;13.664;2023-06-22T11:32:23;8.20;;;7.50;;
25129;SDS011;13308;50.860;13.664;2023-06-22T11:34:49;9.13;;;8.43;;
25129;SDS011;13308;50.860;13.664;2023-06-22T11:37:14;9.48;;;8.63;;
25129;SDS011;13308;50.860;13.664;2023-06-22T11:39:40;8.90;;;8.20;;
25129;SDS011;13308;50.860;13.664;2023-06-22T11:42:05;9.45;;;8.45;;
25129;SDS011;13308;50.860;13.664;2023-06-22T11:44:31;8.38;;;7.63;;
25129;SDS011;13308;50.860;13.664;2023-06-22T11:46:56;9.57;;;8.60;;
25129;SDS011;13308;50.860;13.664;2023-06-22T11:49:22;9.32;;;8.43;;
25129;SDS011;13308;50.860;13.664;2023-06-22T11:51:47;8.95;;;8.25;;
25129;SDS011;13308;50.860;13.664;2023-06-22T11:54:12;8.75;;;7.95;;
25129;SDS011;13308;50.860;13.664;2023-06-22T11:56:37;8.57;;;7.78;;
25129;SDS011;13308;50.860;13.664;2023-06-22T11:59:03;9.85;;;8.85;;
25129;SDS011;13308;50.860;13.664;2023-06-22T12:01:28;9.25;;;8.52;;
25129;SDS011;13308;50.860;13.664;2023-06-22T12:03:53;8.52;;;7.82;;
25129;SDS011;13308;50.860;13.664;2023-06-22T12:06:19;8.75;;;8.05;;
25129;SDS011;13308;50.860;13.664;2023-06-22T12:08:44;8.05;;;7.35;;
25129;SDS011;13308;50.860;13.664;2023-06-22T12:11:09;9.57;;;8.68;;
25129;SDS011;13308;50.860;13.664;2023-06-22T12:13:35;9.52;;;8.63;;
25129;SDS011;13308;50.860;13.664;2023-06-22T12:16:00;8.35;;;7.65;;
25129;SDS011;13308;50.860;13.664;2023-06-22T12:18:25;9.50;;;8.70;;
25129;SDS011;13308;50.860;13.664;2023-06-22T12:20:50;10.00;;;7.85;;
25129;SDS011;13308;50.860;13.664;2023-06-22T12:23:16;9.57;;;8.05;;
25129;SDS011;13308;50.860;13.664;2023-06-22T12:25:41;9.07;;;8.30;;
25129;SDS011;13308;50.860;13.664;2023-06-22T12:28:06;8.15;;;7.45;;
25129;SDS011;13308;50.860;13.664;2023-06-22T12:30:32;8.20;;;7.50;;
25129;SDS011;13308;50.860;13.664;2023-06-22T12:32:58;8.65;;;7.85;;
25129;SDS011;13308;50.860;13.664;2023-06-22T12:35:24;9.05;;;8.15;;
25129;SDS011;13308;50.860;13.664;2023-06-22T12:37:49;8.77;;;7.97;;
25129;SDS011;13308;50.860;13.664;2023-06-22T12:40:14;9.90;;;8.88;;
25129;SDS011;13308;50.860;13.664;2023-06-22T12:42:40;8.73;;;8.02;;
25129;SDS011;13308;50.860;13.664;2023-06-22T12:45:05;8.43;;;7.72;;
25129;SDS011;13308;50.860;13.664;2023-06-22T12:47:31;8.25;;;7.55;;
25129;SDS011;13308;50.860;13.664;2023-06-22T12:49:56;9.10;;;8.30;;
25129;SDS011;13308;50.860;13.664;2023-06-22T12:52:21;9.00;;;8.18;;
25129;SDS011;13308;50.860;13.664;2023-06-22T12:54:47;8.30;;;7.65;;
25129;SDS011;13308;50.860;13.664;2023-06-22T12:57:13;8.75;;;8.05;;
25129;SDS011;13308;50.860;13.664;2023-06-22T12:59:38;8.98;;;8.23;;
25129;SDS011;13308;50.860;13.664;2023-06-22T13:02:04;8.65;;;7.82;;
25129;SDS011;13308;50.860;13.664;2023-06-22T13:04:29;8.77;;;8.05;;
25129;SDS011;13308;50.860;13.664;2023-06-22T13:06:54;7.68;;;7.03;;
25129;SDS011;13308;50.860;13.664;2023-06-22T13:09:20;8.25;;;7.55;;
25129;SDS011;13308;50.860;13.664;2023-06-22T13:11:45;8.45;;;7.75;;
25129;SDS011;13308;50.860;13.664;2023-06-22T13:14:11;7.88;;;7.18;;
25129;SDS011;13308;50.860;13.664;2023-06-22T13:16:36;8.50;;;7.75;;
25129;SDS011;13308;50.860;13.664;2023-06-22T13:19:01;7.95;;;7.35;;
25129;SDS011;13308;50.860;13.664;2023-06-22T13:21:26;8.30;;;7.63;;
25129;SDS011;13308;50.860;13.664;2023-06-22T13:23:52;8.02;;;7.32;;
25129;SDS011;13308;50.860;13.664;2023-06-22T13:26:17;7.47;;;6.78;;
25129;SDS011;13308;50.860;13.664;2023-06-22T13:28:43;7.40;;;6.88;;
25129;SDS011;13308;50.860;13.664;2023-06-22T13:31:08;8.45;;;7.72;;
25129;SDS011;13308;50.860;13.664;2023-06-22T13:33:33;9.48;;;8.68;;
25129;SDS011;13308;50.860;13.664;2023-06-22T13:35:58;8.10;;;7.40;;
25129;SDS011;13308;50.860;13.664;2023-06-22T13:38:24;7.18;;;6.55;;
25129;SDS011;13308;50.860;13.664;2023-06-22T13:40:49;7.07;;;6.53;;
25129;SDS011;13308;50.860;13.664;2023-06-22T13:43:15;7.15;;;6.63;;
25129;SDS011;13308;50.860;13.664;2023-06-22T13:45:41;7.68;;;6.82;;
25129;SDS011;13308;50.860;13.664;2023-06-22T13:48:07;6.88;;;6.38;;
25129;SDS011;13308;50.860;13.664;2023-06-22T13:50:33;7.07;;;6.38;;
25129;SDS011;13308;50.860;13.664;2023-06-22T13:52:58;6.95;;;6.45;;
25129;SDS011;13308;50.860;13.664;2023-06-22T13:55:23;7.80;;;7.20;;
25129;SDS011;13308;50.860;13.664;2023-06-22T13:57:49;8.52;;;7.82;;
25129;SDS011;13308;50.860;13.664;2023-06-22T14:00:14;7.93;;;7.32;;
25129;SDS011;13308;50.860;13.664;2023-06-22T14:02:41;8.07;;;7.43;;
25129;SDS011;13308;50.860;13.664;2023-06-22T14:05:07;7.88;;;7.15;;
25129;SDS011;13308;50.860;13.664;2023-06-22T14:07:33;8.60;;;7.88;;
25129;SDS011;13308;50.860;13.664;2023-06-22T14:09:59;7.90;;;7.30;;
25129;SDS011;13308;50.860;13.664;2023-06-22T14:12:24;8.68;;;6.95;;
25129;SDS011;13308;50.860;13.664;2023-06-22T14:14:50;7.75;;;7.05;;
25129;SDS011;13308;50.860;13.664;2023-06-22T14:17:15;7.55;;;6.85;;
25129;SDS011;13308;50.860;13.664;2023-06-22T14:19:40;7.20;;;6.63;;
25129;SDS011;13308;50.860;13.664;2023-06-22T14:22:06;6.40;;;5.90;;
25129;SDS011;13308;50.860;13.664;2023-06-22T14:24:31;6.43;;;5.93;;
25129;SDS011;13308;50.860;13.664;2023-06-22T14:26:56;6.90;;;6.40;;
25129;SDS011;13308;50.860;13.664;2023-06-22T14:29:22;7.47;;;6.88;;
25129;SDS011;13308;50.860;13.664;2023-06-22T14:31:48;7.25;;;6.65;;
25129;SDS011;13308;50.860;13.664;2023-06-22T14:34:13;7.72;;;7.13;;
25129;SDS011;13308;50.860;13.664;2023-06-22T14:36:39;7.50;;;6.90;;
25129;SDS011;13308;50.860;13.664;2023-06-22T14:39:04;7.97;;;7.30;;
25129;SDS011;13308;50.860;13.664;2023-06-22T14:41:30;7.32;;;6.72;;
25129;SDS011;13308;50.860;13.664;2023-06-22T14:43:56;7.55;;;6.85;;
25129;SDS011;13308;50.860;13.664;2023-06-22T14:46:21;7.03;;;6.30;;
25129;SDS011;13308;50.860;13.664;2023-06-22T14:48:47;7.63;;;6.93;;
25129;SDS011;13308;50.860;13.664;2023-06-22T14:51:12;8.05;;;7.25;;
25129;SDS011;13308;50.860;13.664;2023-06-22T14:53:38;7.85;;;7.22;;
25129;SDS011;13308;50.860;13.664;2023-06-22T14:56:04;7.55;;;6.80;;
25129;SDS011;13308;50.860;13.664;2023-06-22T14:58:32;7.70;;;7.10;;
25129;SDS011;13308;50.860;13.664;2023-06-22T15:00:59;7.90;;;7.13;;
25129;SDS011;13308;50.860;13.664;2023-06-22T15:03:28;8.65;;;7.95;;
25129;SDS011;13308;50.860;13.664;2023-06-22T15:05:55;8.10;;;7.30;;
25129;SDS011;13308;50.860;13.664;2023-06-22T15:08:21;7.95;;;7.25;;
25129;SDS011;13308;50.860;13.664;2023-06-22T15:10:47;8.13;;;7.53;;
25129;SDS011;13308;50.860;13.664;2023-06-22T15:13:12;8.00;;;7.20;;
25129;SDS011;13308;50.860;13.664;2023-06-22T15:15:37;8.30;;;7.60;;
25129;SDS011;13308;50.860;13.664;2023-06-22T15:18:03;7.78;;;7.18;;
25129;SDS011;13308;50.860;13.664;2023-06-22T15:20:28;8.40;;;7.47;;
25129;SDS011;13308;50.860;13.664;2023-06-22T15:22:54;7.65;;;7.05;;
25129;SDS011;13308;50.860;13.664;2023-06-22T15:25:19;8.23;;;7.53;;
25129;SDS011;13308;50.860;13.664;2023-06-22T15:27:45;10.27;;;8.02;;
25129;SDS011;13308;50.860;13.664;2023-06-22T15:30:10;7.65;;;7.03;;
25129;SDS011;13308;50.860;13.664;2023-06-22T15:32:35;8.40;;;7.70;;
25129;SDS011;13308;50.860;13.664;2023-06-22T15:35:01;8.13;;;7.53;;
25129;SDS011;13308;50.860;13.664;2023-06-22T15:37:26;8.63;;;7.93;;
25129;SDS011;13308;50.860;13.664;2023-06-22T15:39:52;8.48;;;7.78;;
25129;SDS011;13308;50.860;13.664;2023-06-22T15:42:17;8.20;;;7.45;;
25129;SDS011;13308;50.860;13.664;2023-06-22T15:44:42;8.82;;;8.02;;
25129;SDS011;13308;50.860;13.664;2023-06-22T15:47:07;8.40;;;7.70;;
25129;SDS011;13308;50.860;13.664;2023-06-22T15:49:33;8.32;;;7.57;;
25129;SDS011;13308;50.860;13.664;2023-06-22T15:51:58;8.85;;;7.75;;
25129;SDS011;13308;50.860;13.664;2023-06-22T15:54:23;9.38;;;8.48;;
25129;SDS011;13308;50.860;13.664;2023-06-22T15:56:49;10.50;;;8.18;;
25129;SDS011;13308;50.860;13.664;2023-06-22T15:59:14;8.82;;;7.93;;
25129;SDS011;13308;50.860;13.664;2023-06-22T16:01:39;9.50;;;8.25;;
25129;SDS011;13308;50.860;13.664;2023-06-22T16:04:05;8.65;;;7.85;;
25129;SDS011;13308;50.860;13.664;2023-06-22T16:06:30;9.90;;;8.40;;
25129;SDS011;13308;50.860;13.664;2023-06-22T16:08:55;9.25;;;8.55;;
25129;SDS011;13308;50.860;13.664;2023-06-22T16:11:21;8.85;;;8.15;;
25129;SDS011;13308;50.860;13.664;2023-06-22T16:13:47;8.93;;;8.02;;
25129;SDS011;13308;50.860;13.664;2023-06-22T16:16:12;8.73;;;7.97;;
25129;SDS011;13308;50.860;13.664;2023-06-22T16:18:37;8.73;;;8.02;;
25129;SDS011;13308;50.860;13.664;2023-06-22T16:21:05;8.02;;;7.32;;
25129;SDS011;13308;50.860;13.664;2023-06-22T16:23:30;9.23;;;8.38;;
25129;SDS011;13308;50.860;13.664;2023-06-22T16:25:56;10.27;;;8.32;;
25129;SDS011;13308;50.860;13.664;2023-06-22T16:28:21;8.70;;;7.90;;
25129;SDS011;13308;50.860;13.664;2023-06-22T16:30:47;8.38;;;7.57;;
25129;SDS011;13308;50.860;13.664;2023-06-22T16:33:13;8.82;;;7.93;;
25129;SDS011;13308;50.860;13.664;2023-06-22T16:35:38;9.13;;;8.32;;
25129;SDS011;13308;50.860;13.664;2023-06-22T16:38:05;9.20;;;8.48;;
25129;SDS011;13308;50.860;13.664;2023-06-22T16:40:31;9.32;;;8.23;;
25129;SDS011;13308;50.860;13.664;2023-06-22T16:42:56;9.30;;;8.50;;
25129;SDS011;13308;50.860;13.664;2023-06-22T16:45:22;9.35;;;8.27;;
25129;SDS011;13308;50.860;13.664;2023-06-22T16:47:48;8.82;;;8.13;;
25129;SDS011;13308;50.860;13.664;2023-06-22T16:50:14;8.90;;;8.10;;
25129;SDS011;13308;50.860;13.664;2023-06-22T16:52:41;8.77;;;7.97;;
25129;SDS011;13308;50.860;13.664;2023-06-22T16:55:09;9.48;;;7.78;;
25129;SDS011;13308;50.860;13.664;2023-06-22T16:57:35;8.95;;;8.15;;
25129;SDS011;13308;50.860;13.664;2023-06-22T17:00:01;9.18;;;7.72;;
25129;SDS011;13308;50.860;13.664;2023-06-22T17:02:27;8.05;;;7.35;;
25129;SDS011;13308;50.860;13.664;2023-06-22T17:04:53;10.15;;;8.32;;
25129;SDS011;13308;50.860;13.664;2023-06-22T17:07:20;9.00;;;8.23;;
25129;SDS011;13308;50.860;13.664;2023-06-22T17:09:47;8.77;;;7.97;;
25129;SDS011;13308;50.860;13.664;2023-06-22T17:12:15;9.30;;;8.40;;
25129;SDS011;13308;50.860;13.664;2023-06-22T17:14:41;9.57;;;8.70;;
25129;SDS011;13308;50.860;13.664;2023-06-22T17:17:09;8.40;;;7.70;;
25129;SDS011;13308;50.860;13.664;2023-06-22T17:19:35;9.75;;;8.82;;
25129;SDS011;13308;50.860;13.664;2023-06-22T17:22:01;10.23;;;7.65;;
25129;SDS011;13308;50.860;13.664;2023-06-22T17:24:26;10.02;;;8.10;;
25129;SDS011;13308;50.860;13.664;2023-06-22T17:26:52;9.65;;;8.75;;
25129;SDS011;13308;50.860;13.664;2023-06-22T17:29:18;8.95;;;8.18;;
25129;SDS011;13308;50.860;13.664;2023-06-22T17:31:44;9.05;;;8.18;;
25129;SDS011;13308;50.860;13.664;2023-06-22T17:34:14;8.50;;;7.80;;
25129;SDS011;13308;50.860;13.664;2023-06-22T17:36:40;9.38;;;8.57;;
25129;SDS011;13308;50.860;13.664;2023-06-22T17:39:09;9.32;;;8.20;;
25129;SDS011;13308;50.860;13.664;2023-06-22T17:41:37;8.98;;;8.18;;
25129;SDS011;13308;50.860;13.664;2023-06-22T17:44:04;8.80;;;8.10;;
25129;SDS011;13308;50.860;13.664;2023-06-22T17:46:33;9.35;;;8.48;;
25129;SDS011;13308;50.860;13.664;2023-06-22T17:49:11;9.00;;;8.15;;
25129;SDS011;13308;50.860;13.664;2023-06-22T17:51:42;9.93;;;8.98;;
25129;SDS011;13308;50.860;13.664;2023-06-22T17:54:07;8.35;;;7.65;;
25129;SDS011;13308;50.860;13.664;2023-06-22T17:56:33;9.70;;;8.80;;
25129;SDS011;13308;50.860;13.664;2023-06-22T17:58:59;10.00;;;8.32;;
25129;SDS011;13308;50.860;13.664;2023-06-22T18:01:35;13.65;;;8.18;;
